Seabourn Encore — C6CG4 — position and weather

sailwx.info

Track history (hours):
 
Tides and Currents Weather Stations Pressure Air Temp Water Temp Dewpoint Dewpoint Depression Visibility Wind Speed Wind Dir Waves Ship Positions

Seabourn Encore

Last reported at 2018-Jun-21 22:34 UTC. Time now 2018-Jun-22 01:56 UTC.
Position N 36°44' E 013°32'.

Length 211 m; draft 6.8 m.

Type: Passenger vessel. MMSI: 311000464.

Date/timePositionNaut miles runAvg speedWind from/ knotsBaromVisibWave heightAir tempDewpointWater temp
2018-Jun-21 22:34N 36°44' E 013°32'2812.2
2018-Jun-21 20:17N 36°26' E 013°58'412.2
2018-Jun-21 19:56N 36°23' E 014°03'512.2
2018-Jun-21 19:29N 36°19' E 014°08'612.2
2018-Jun-21 18:58N 36°15' E 014°14'812.2
2018-Jun-21 18:17N 36°10' E 014°21'312.1
2018-Jun-21 18:00N 36°07' E 014°24'193.5
2018-Jun-21 18:00N 36°06' E 014°24'611.6 250 / 31019.1 5.4 24.0 23.0
2018-Jun-21 17:29N 36°03' E 014°30'611.4
2018-Jun-21 16:59N 35°58' E 014°33'4 8.7
2018-Jun-21 16:30N 35°54' E 014°32'5 0.2
2018-Jun-20 14:47N 35°60' E 014°31'2 7.6
2018-Jun-20 14:27N 36°02' E 014°30'5 7.0
2018-Jun-20 13:44N 36°02' E 014°23'109 5.3
2018-Jun-19 17:24N 37°38' E 015°29'511.7
2018-Jun-19 16:58N 37°42' E 015°25'23 1.9
2018-Jun-19 04:35N 38°04' E 015°32'318.5
2018-Jun-19 04:26N 38°06' E 015°33'715.9
2018-Jun-19 03:59N 38°13' E 015°36'612.4
2018-Jun-19 03:29N 38°18' E 015°41'816.2
2018-Jun-19 02:58N 38°26' E 015°37'815.2
2018-Jun-19 02:28N 38°33' E 015°33'715.1
2018-Jun-19 02:00N 38°39' E 015°29'1015.5
2018-Jun-19 01:20N 38°49' E 015°23'7215.2
2018-Jun-18 20:37N 39°53' E 014°43'215.5
2018-Jun-18 20:28N 39°55' E 014°41'715.4
2018-Jun-18 20:00N 40°02' E 014°37'815.4
2018-Jun-18 19:30N 40°09' E 014°33'815.4
2018-Jun-18 19:00N 40°16' E 014°28'5296.8
2018-Jun-18 19:00N 40°12' E 014°24'1021.6 330 / 151015.1 5.4 25.0 23.0
2018-Jun-18 18:30N 40°22' E 014°24'815.5
2018-Jun-18 18:00N 40°29' E 014°19'714.5
2018-Jun-18 17:30N 40°36' E 014°17'714.8
2018-Jun-18 17:00N 40°44' E 014°16'612.5
2018-Jun-18 16:30N 40°50' E 014°17'1 1.7
2018-Jun-18 16:00N 40°50' E 014°15'0 0.0
2018-Jun-18 15:30N 40°50' E 014°15'0 0.0
2018-Jun-18 15:00N 40°50' E 014°15'0 0.0
2018-Jun-18 14:30N 40°50' E 014°15'0 0.0
2018-Jun-18 14:00N 40°50' E 014°15'0 0.0
2018-Jun-18 13:30N 40°50' E 014°15'0 0.0
2018-Jun-18 13:00N 40°50' E 014°15'0 0.0
2018-Jun-18 12:30N 40°50' E 014°15'0 0.0
2018-Jun-18 12:00N 40°50' E 014°15'0 0.0
2018-Jun-18 11:30N 40°50' E 014°15'0 0.0
2018-Jun-18 11:00N 40°50' E 014°15'0 0.0
2018-Jun-18 10:30N 40°50' E 014°15'0 0.0
2018-Jun-18 10:00N 40°50' E 014°15'0 0.0
2018-Jun-18 09:27N 40°50' E 014°15'0 0.0
2018-Jun-18 09:00N 40°50' E 014°15'0 0.0
2018-Jun-18 08:30N 40°50' E 014°15'0 0.0
2018-Jun-18 08:00N 40°50' E 014°15'0 0.0
2018-Jun-18 07:30N 40°50' E 014°15'0 0.0
2018-Jun-18 07:00N 40°50' E 014°15'0 0.0
2018-Jun-18 06:30N 40°50' E 014°15'0 0.0
2018-Jun-18 06:00N 40°50' E 014°15'0 0.6
2018-Jun-18 05:30N 40°50' E 014°16'2 4.3
2018-Jun-18 05:00N 40°48' E 014°17'612.0
2018-Jun-18 04:30N 40°43' E 014°14'612.3
2018-Jun-18 04:00N 40°38' E 014°08'612.3
2018-Jun-18 03:30N 40°36' E 014°00'612.4
2018-Jun-18 03:00N 40°36' E 013°52'612.0
2018-Jun-18 02:30N 40°37' E 013°44'714.3
2018-Jun-18 02:00N 40°39' E 013°35'2313.8
2018-Jun-18 00:21N 40°42' E 013°06'13715.3
2018-Jun-17 15:23N 42°24' E 011°02'617.1
2018-Jun-17 15:01N 42°27' E 010°56'917.8
2018-Jun-17 14:31N 42°34' E 010°48'918.3
2018-Jun-17 14:01N 42°42' E 010°40'917.9
2018-Jun-17 13:31N 42°49' E 010°33'815.9
2018-Jun-17 13:01N 42°55' E 010°27'714.2
2018-Jun-17 12:31N 42°50' E 010°21'1 1.7
2018-Jun-17 11:56N 42°49' E 010°21'0 0.0
2018-Jun-17 11:11N 42°49' E 010°21'0 0.0
2018-Jun-17 10:53N 42°49' E 010°21'0 0.0
2018-Jun-17 10:26N 42°49' E 010°21'0 0.0
2018-Jun-17 09:56N 42°49' E 010°21'0 0.0
2018-Jun-17 09:29N 42°49' E 010°21'0 0.0
2018-Jun-17 08:53N 42°49' E 010°21'0 0.0
2018-Jun-17 08:17N 42°49' E 010°21'0 0.0
2018-Jun-17 07:59N 42°49' E 010°21'0 0.0
2018-Jun-17 07:26N 42°49' E 010°21'0 0.0
2018-Jun-17 06:50N 42°49' E 010°21'0 0.1
2018-Jun-17 06:26N 42°49' E 010°21'0 0.0
2018-Jun-17 05:59N 42°49' E 010°21'0 0.0
2018-Jun-17 05:29N 42°49' E 010°21'0 0.0
2018-Jun-17 04:56N 42°49' E 010°21'0 0.2
2018-Jun-17 04:27N 42°49' E 010°21'3 5.2
2018-Jun-17 03:55N 42°51' E 010°19'4 9.5
2018-Jun-17 03:30N 42°53' E 010°14'5 9.0
2018-Jun-17 03:00N 42°53' E 010°08'4 8.3
2018-Jun-17 02:30N 42°51' E 010°03'4 8.1
2018-Jun-17 02:00N 42°47' E 010°02'4 9.0
2018-Jun-17 01:30N 42°42' E 010°03'8 9.4
2018-Jun-17 00:42N 42°39' E 010°12'3 9.5
2018-Jun-17 00:25N 42°37' E 010°15'5 9.6
2018-Jun-16 23:53N 42°35' E 010°21'4 9.6
2018-Jun-16 23:30N 42°34' E 010°26'5 9.6
2018-Jun-16 23:00N 42°29' E 010°28'5 9.7
2018-Jun-16 22:30N 42°25' E 010°30'5 9.5
2018-Jun-16 22:00N 42°20' E 010°32'5 9.5
2018-Jun-16 21:30N 42°16' E 010°35'9 8.8
2018-Jun-16 20:33N 42°11' E 010°44'0 9.6
2018-Jun-16 20:30N 42°10' E 010°45'5 9.6
2018-Jun-16 19:56N 42°08' E 010°51'4 9.6
2018-Jun-16 19:30N 42°07' E 010°57'714.2
2018-Jun-16 19:00N 42°00' E 011°00'628.2 340 / 181013.110.8 25.0 23.0
2018-Jun-16 18:46N 42°05' E 011°06'2 9.6
2018-Jun-16 18:30N 42°04' E 011°09'5 9.6
2018-Jun-16 18:00N 42°03' E 011°15'161 6.6
2018-Jun-15 17:41N 40°27' E 014°08'917.0
2018-Jun-15 17:11N 40°29' E 014°19'417.2
2018-Jun-15 16:58N 40°30' E 014°23'817.2
2018-Jun-15 16:30N 40°34' E 014°33'4 0.4
2018-Jun-15 06:26N 40°37' E 014°37'614.4
2018-Jun-15 06:01N 40°31' E 014°39'714.6
2018-Jun-15 05:30N 40°23' E 014°41'612.6
2018-Jun-15 05:00N 40°17' E 014°42'714.3
2018-Jun-15 04:30N 40°10' E 014°45'714.4
2018-Jun-15 04:01N 40°04' E 014°48'1616.1
2018-Jun-15 03:00N 39°48' E 014°54'5815.2 010 / 131002.910.8 21.814.223.2
2018-Jun-14 23:11N 38°55' E 015°24'315.7
2018-Jun-14 22:59N 38°52' E 015°26'815.1
2018-Jun-14 22:26N 38°44' E 015°30'615.1
2018-Jun-14 22:00N 38°38' E 015°33'815.1
2018-Jun-14 21:28N 38°31' E 015°37'715.2
2018-Jun-14 21:00N 38°24' E 015°40'814.8
2018-Jun-14 20:29N 38°17' E 015°42'612.6
2018-Jun-14 20:00N 38°13' E 015°37'714.3
2018-Jun-14 19:30N 38°06' E 015°36'611.9
2018-Jun-14 18:59N 37°60' E 015°35'812.6
2018-Jun-14 18:22N 37°52' E 015°33'512.6
2018-Jun-14 18:00N 37°47' E 015°32'612.6
2018-Jun-14 17:29N 37°41' E 015°31'714.4
2018-Jun-14 17:00N 37°34' E 015°29'713.9
2018-Jun-14 16:28N 37°27' E 015°28'715.6
2018-Jun-14 16:00N 37°20' E 015°27'98 4.7
2018-Jun-13 19:00N 38°30' E 016°54'   300 / 301008.1 5.4 24.0 23.0
Track history (hours):
 
Tides and Currents Weather Stations Pressure Air Temp Water Temp Dewpoint Dewpoint Depression Visibility Wind Speed Wind Dir Waves Ship Positions

Seabourn Encore

Last reported at 2018-Jun-21 22:34 UTC. Time now 2018-Jun-22 01:56 UTC.
Position N 36°44' E 013°32'.

Length 211 m; draft 6.8 m.

Type: Passenger vessel. MMSI: 311000464.

Date/timePositionNaut miles runAvg speedWind from/ knotsBaromVisibWave heightAir tempDewpointWater temp
2018-Jun-21 22:34N 36°44' E 013°32'2812.2
2018-Jun-21 20:17N 36°26' E 013°58'412.2
2018-Jun-21 19:56N 36°23' E 014°03'512.2
2018-Jun-21 19:29N 36°19' E 014°08'612.2
2018-Jun-21 18:58N 36°15' E 014°14'812.2
2018-Jun-21 18:17N 36°10' E 014°21'312.1
2018-Jun-21 18:00N 36°07' E 014°24'193.5
2018-Jun-21 18:00N 36°06' E 014°24'611.6 250 / 31019.1 5.4 24.0 23.0
2018-Jun-21 17:29N 36°03' E 014°30'611.4
2018-Jun-21 16:59N 35°58' E 014°33'4 8.7
2018-Jun-21 16:30N 35°54' E 014°32'5 0.2
2018-Jun-20 14:47N 35°60' E 014°31'2 7.6
2018-Jun-20 14:27N 36°02' E 014°30'5 7.0
2018-Jun-20 13:44N 36°02' E 014°23'109 5.3
2018-Jun-19 17:24N 37°38' E 015°29'511.7
2018-Jun-19 16:58N 37°42' E 015°25'23 1.9
2018-Jun-19 04:35N 38°04' E 015°32'318.5
2018-Jun-19 04:26N 38°06' E 015°33'715.9
2018-Jun-19 03:59N 38°13' E 015°36'612.4
2018-Jun-19 03:29N 38°18' E 015°41'816.2
2018-Jun-19 02:58N 38°26' E 015°37'815.2
2018-Jun-19 02:28N 38°33' E 015°33'715.1
2018-Jun-19 02:00N 38°39' E 015°29'1015.5
2018-Jun-19 01:20N 38°49' E 015°23'7215.2
2018-Jun-18 20:37N 39°53' E 014°43'215.5
2018-Jun-18 20:28N 39°55' E 014°41'715.4
2018-Jun-18 20:00N 40°02' E 014°37'815.4
2018-Jun-18 19:30N 40°09' E 014°33'815.4
2018-Jun-18 19:00N 40°16' E 014°28'5296.8
2018-Jun-18 19:00N 40°12' E 014°24'1021.6 330 / 151015.1 5.4 25.0 23.0
2018-Jun-18 18:30N 40°22' E 014°24'815.5
2018-Jun-18 18:00N 40°29' E 014°19'714.5
2018-Jun-18 17:30N 40°36' E 014°17'714.8
2018-Jun-18 17:00N 40°44' E 014°16'612.5
2018-Jun-18 16:30N 40°50' E 014°17'1 1.7
2018-Jun-18 16:00N 40°50' E 014°15'0 0.0
2018-Jun-18 15:30N 40°50' E 014°15'0 0.0
2018-Jun-18 15:00N 40°50' E 014°15'0 0.0
2018-Jun-18 14:30N 40°50' E 014°15'0 0.0
2018-Jun-18 14:00N 40°50' E 014°15'0 0.0
2018-Jun-18 13:30N 40°50' E 014°15'0 0.0
2018-Jun-18 13:00N 40°50' E 014°15'0 0.0
2018-Jun-18 12:30N 40°50' E 014°15'0 0.0
2018-Jun-18 12:00N 40°50' E 014°15'0 0.0
2018-Jun-18 11:30N 40°50' E 014°15'0 0.0
2018-Jun-18 11:00N 40°50' E 014°15'0 0.0
2018-Jun-18 10:30N 40°50' E 014°15'0 0.0
2018-Jun-18 10:00N 40°50' E 014°15'0 0.0
2018-Jun-18 09:27N 40°50' E 014°15'0 0.0
2018-Jun-18 09:00N 40°50' E 014°15'0 0.0
2018-Jun-18 08:30N 40°50' E 014°15'0 0.0
2018-Jun-18 08:00N 40°50' E 014°15'0 0.0
2018-Jun-18 07:30N 40°50' E 014°15'0 0.0
2018-Jun-18 07:00N 40°50' E 014°15'0 0.0
2018-Jun-18 06:30N 40°50' E 014°15'0 0.0
2018-Jun-18 06:00N 40°50' E 014°15'0 0.6
2018-Jun-18 05:30N 40°50' E 014°16'2 4.3
2018-Jun-18 05:00N 40°48' E 014°17'612.0
2018-Jun-18 04:30N 40°43' E 014°14'612.3
2018-Jun-18 04:00N 40°38' E 014°08'612.3
2018-Jun-18 03:30N 40°36' E 014°00'612.4
2018-Jun-18 03:00N 40°36' E 013°52'612.0
2018-Jun-18 02:30N 40°37' E 013°44'714.3
2018-Jun-18 02:00N 40°39' E 013°35'2313.8
2018-Jun-18 00:21N 40°42' E 013°06'13715.3
2018-Jun-17 15:23N 42°24' E 011°02'617.1
2018-Jun-17 15:01N 42°27' E 010°56'917.8
2018-Jun-17 14:31N 42°34' E 010°48'918.3
2018-Jun-17 14:01N 42°42' E 010°40'917.9
2018-Jun-17 13:31N 42°49' E 010°33'815.9
2018-Jun-17 13:01N 42°55' E 010°27'714.2
2018-Jun-17 12:31N 42°50' E 010°21'1 1.7
2018-Jun-17 11:56N 42°49' E 010°21'0 0.0
2018-Jun-17 11:11N 42°49' E 010°21'0 0.0
2018-Jun-17 10:53N 42°49' E 010°21'0 0.0
2018-Jun-17 10:26N 42°49' E 010°21'0 0.0
2018-Jun-17 09:56N 42°49' E 010°21'0 0.0
2018-Jun-17 09:29N 42°49' E 010°21'0 0.0
2018-Jun-17 08:53N 42°49' E 010°21'0 0.0
2018-Jun-17 08:17N 42°49' E 010°21'0 0.0
2018-Jun-17 07:59N 42°49' E 010°21'0 0.0
2018-Jun-17 07:26N 42°49' E 010°21'0 0.0
2018-Jun-17 06:50N 42°49' E 010°21'0 0.1
2018-Jun-17 06:26N 42°49' E 010°21'0 0.0
2018-Jun-17 05:59N 42°49' E 010°21'0 0.0
2018-Jun-17 05:29N 42°49' E 010°21'0 0.0
2018-Jun-17 04:56N 42°49' E 010°21'0 0.2
2018-Jun-17 04:27N 42°49' E 010°21'3 5.2
2018-Jun-17 03:55N 42°51' E 010°19'4 9.5
2018-Jun-17 03:30N 42°53' E 010°14'5 9.0
2018-Jun-17 03:00N 42°53' E 010°08'4 8.3
2018-Jun-17 02:30N 42°51' E 010°03'4 8.1
2018-Jun-17 02:00N 42°47' E 010°02'4 9.0
2018-Jun-17 01:30N 42°42' E 010°03'8 9.4
2018-Jun-17 00:42N 42°39' E 010°12'3 9.5
2018-Jun-17 00:25N 42°37' E 010°15'5 9.6
2018-Jun-16 23:53N 42°35' E 010°21'4 9.6
2018-Jun-16 23:30N 42°34' E 010°26'5 9.6
2018-Jun-16 23:00N 42°29' E 010°28'5 9.7
2018-Jun-16 22:30N 42°25' E 010°30'5 9.5
2018-Jun-16 22:00N 42°20' E 010°32'5 9.5
2018-Jun-16 21:30N 42°16' E 010°35'9 8.8
2018-Jun-16 20:33N 42°11' E 010°44'0 9.6
2018-Jun-16 20:30N 42°10' E 010°45'5 9.6
2018-Jun-16 19:56N 42°08' E 010°51'4 9.6
2018-Jun-16 19:30N 42°07' E 010°57'714.2
2018-Jun-16 19:00N 42°00' E 011°00'628.2 340 / 181013.110.8 25.0 23.0
2018-Jun-16 18:46N 42°05' E 011°06'2 9.6
2018-Jun-16 18:30N 42°04' E 011°09'5 9.6
2018-Jun-16 18:00N 42°03' E 011°15'161 6.6
2018-Jun-15 17:41N 40°27' E 014°08'917.0
2018-Jun-15 17:11N 40°29' E 014°19'417.2
2018-Jun-15 16:58N 40°30' E 014°23'817.2
2018-Jun-15 16:30N 40°34' E 014°33'4 0.4
2018-Jun-15 06:26N 40°37' E 014°37'614.4
2018-Jun-15 06:01N 40°31' E 014°39'714.6
2018-Jun-15 05:30N 40°23' E 014°41'612.6
2018-Jun-15 05:00N 40°17' E 014°42'714.3
2018-Jun-15 04:30N 40°10' E 014°45'714.4
2018-Jun-15 04:01N 40°04' E 014°48'1616.1
2018-Jun-15 03:00N 39°48' E 014°54'5815.2 010 / 131002.910.8 21.814.223.2
2018-Jun-14 23:11N 38°55' E 015°24'315.7
2018-Jun-14 22:59N 38°52' E 015°26'815.1
2018-Jun-14 22:26N 38°44' E 015°30'615.1
2018-Jun-14 22:00N 38°38' E 015°33'815.1
2018-Jun-14 21:28N 38°31' E 015°37'715.2
2018-Jun-14 21:00N 38°24' E 015°40'814.8
2018-Jun-14 20:29N 38°17' E 015°42'612.6
2018-Jun-14 20:00N 38°13' E 015°37'714.3
2018-Jun-14 19:30N 38°06' E 015°36'611.9
2018-Jun-14 18:59N 37°60' E 015°35'812.6
2018-Jun-14 18:22N 37°52' E 015°33'512.6
2018-Jun-14 18:00N 37°47' E 015°32'612.6
2018-Jun-14 17:29N 37°41' E 015°31'714.4
2018-Jun-14 17:00N 37°34' E 015°29'713.9
2018-Jun-14 16:28N 37°27' E 015°28'715.6
2018-Jun-14 16:00N 37°20' E 015°27'98 4.7
2018-Jun-13 19:00N 38°30' E 016°54'   300 / 301008.1 5.4 24.0 23.0

Dump ship's entire track history